SAS251 ENCN-EKCH
Flight info
| Callsign | SAS251 |
|---|---|
| Flight time | N/A |
| Altitude | 31000 |
| Route | AMSEV DCT TESPI |
| Aircraft | A320/M-SDE3FGHIRWY/LB1 |
Departure
| Time | 2026-04-30 18:03 |
|---|---|
| Airport | Kristiansand Airport (ENCN) |
Arrival
| Time | N/A |
|---|---|
| Airport | Copenhagen Kastrup Airport (EKCH) |
| Time | Latitude | Longitude | Altitude | Speed | Heading |
|---|---|---|---|---|---|
| 2026-04-30 17:53 | 58.20349 | 8.07641 | 49 ft | 0 kts | 268° |
| 2026-04-30 17:54 | 58.20336 | 8.07688 | 49 ft | 2 kts | 332° |
| 2026-04-30 17:55 | 58.20302 | 8.07676 | 49 ft | 0 kts | 37° |
| 2026-04-30 17:56 | 58.20307 | 8.07685 | 49 ft | 2 kts | 43° |
| 2026-04-30 17:57 | 58.20407 | 8.07985 | 50 ft | 2 kts | 54° |
| 2026-04-30 17:58 | 58.20418 | 8.08016 | 50 ft | 0 kts | 54° |
| 2026-04-30 17:59 | 58.20476 | 8.08161 | 51 ft | 16 kts | 53° |
| 2026-04-30 18:00 | 58.20558 | 8.08517 | 53 ft | 0 kts | 81° |
| 2026-04-30 18:00 | 58.20623 | 8.08806 | 55 ft | 21 kts | 41° |
| 2026-04-30 18:01 | 58.20900 | 8.09199 | 59 ft | 26 kts | 37° |
| 2026-04-30 18:02 | 58.21093 | 8.09429 | 59 ft | 10 kts | 216° |
| 2026-04-30 18:02 | 58.20536 | 8.08698 | 54 ft | 124 kts | 213° |
| 2026-04-30 18:03 | 58.17912 | 8.06318 | 2048 ft | 150 kts | 202° |
| 2026-04-30 18:04 | 58.14593 | 8.03936 | 3792 ft | 197 kts | 204° |
| 2026-04-30 18:05 | 58.08597 | 8.00157 | 5645 ft | 255 kts | 178° |
| 2026-04-30 18:06 | 58.02472 | 8.07929 | 9633 ft | 287 kts | 142° |
| 2026-04-30 18:07 | 57.95795 | 8.17879 | 12526 ft | 343 kts | 143° |
| 2026-04-30 18:08 | 57.89733 | 8.26784 | 14008 ft | 393 kts | 142° |
| 2026-04-30 18:09 | 57.80911 | 8.39667 | 17024 ft | 414 kts | 142° |
| 2026-04-30 18:10 | 57.73555 | 8.52731 | 19354 ft | 430 kts | 120° |
| 2026-04-30 18:11 | 57.68941 | 8.73429 | 22089 ft | 440 kts | 113° |
| 2026-04-30 18:11 | 57.62525 | 8.85586 | 23798 ft | 456 kts | 150° |
| 2026-04-30 18:12 | 57.54052 | 8.94089 | 25314 ft | 468 kts | 151° |
| 2026-04-30 18:13 | 57.48317 | 8.99854 | 26253 ft | 475 kts | 151° |
| 2026-04-30 18:13 | 57.40553 | 9.07693 | 27395 ft | 481 kts | 150° |
| 2026-04-30 18:14 | 57.33741 | 9.14555 | 28695 ft | 478 kts | 150° |
| 2026-04-30 18:15 | 57.25047 | 9.23278 | 30217 ft | 477 kts | 150° |
| 2026-04-30 18:15 | 57.16259 | 9.32047 | 31287 ft | 483 kts | 150° |
| 2026-04-30 18:16 | 57.10320 | 9.37945 | 31411 ft | 485 kts | 150° |
| 2026-04-30 18:16 | 57.04386 | 9.43817 | 31418 ft | 485 kts | 150° |
| 2026-04-30 18:17 | 56.98456 | 9.49664 | 31423 ft | 486 kts | 150° |
| 2026-04-30 18:18 | 56.90106 | 9.57859 | 31427 ft | 486 kts | 150° |